Data for 11/06/2007

Time Sea-Level Adjusted Pressure Absolute Pressure Temperature Relative Humidity Dew Point   
(mb) (inHg) (mb) (inHg) (C) (F) (%) (C) (F)
00:05 1024 30.24 853 25.19 -0.3 31.4 75 -4.2 24.5
00:10 1024 30.24 853 25.19 -0.3 31.5 75 -4.1 24.6
00:15 1024 30.24 853 25.19 -0.2 31.6 75 -4.1 24.7
00:20 1024 30.24 853 25.19 -0.3 31.5 75 -4.1 24.6
00:25 1024 30.24 853 25.19 -0.4 31.3 76 -4.2 24.5
00:30 1024 30.24 853 25.19 -0.5 31.2 76 -4.2 24.4
00:35 1024 30.24 853 25.19 -0.5 31.2 76 -4.2 24.5
00:40 1024 30.24 853 25.19 -0.4 31.3 76 -4.2 24.4
00:45 1024 30.24 853 25.19 -0.4 31.3 75 -4.2 24.4
00:50 1024 30.24 853 25.19 -0.3 31.4 75 -4.2 24.4
00:55 1024 30.24 853 25.19 -0.1 31.9 74 -4.2 24.4
01:00 1024 30.24 853 25.19 0.3 32.5 73 -4.1 24.7
01:05 1024 30.24 853 25.19 0.5 32.8 72 -4 24.8
01:10 1024 30.24 853 25.19 0.4 32.7 73 -4 24.9
01:15 1024 30.24 853 25.19 0.2 32.4 74 -4 24.8
01:20 1024 30.24 853 25.19 -0.2 31.6 76 -4 24.8
01:25 1024 30.24 853 25.19 -0.4 31.3 76 -4.1 24.7
01:30 1024 30.24 853 25.19 -0.4 31.2 75 -4.3 24.3
01:35 1024 30.24 853 25.19 -0.8 30.6 78 -4.2 24.5
01:40 1024 30.24 853 25.19 -0.9 30.3 77 -4.4 24.1
01:45 1024 30.24 853 25.19 -0.9 30.4 77 -4.4 24.1
01:50 1024 30.24 853 25.19 -1 30.2 77 -4.4 24
01:55 1024 30.24 853 25.19 -1.1 30 78 -4.4 24
02:00 1024 30.24 853 25.19 -1.1 30 78 -4.4 24.1
02:05 1024 30.24 853 25.19 -0.7 30.8 75 -4.5 23.8
02:10 1024 30.24 853 25.19 -0.3 31.5 74 -4.3 24.3
02:15 1024 30.24 853 25.19 -0.6 31 76 -4.2 24.4
02:20 1024 30.24 853 25.19 -0.9 30.3 78 -4.3 24.2
02:25 1024 30.24 853 25.19 -1 30.2 78 -4.4 24
02:30 1024 30.24 853 25.19 -0.9 30.4 77 -4.4 24
02:35 1024 30.24 853 25.19 -0.7 30.7 77 -4.4 24.2
02:40 1024 30.24 853 25.19 -0.8 30.6 77 -4.4 24.1
02:45 1024 30.24 853 25.19 -0.9 30.4 77 -4.5 24
02:50 1024 30.24 853 25.19 -0.9 30.3 77 -4.4 24.1
02:55 1024 30.24 853 25.19 -0.9 30.3 77 -4.5 23.9
03:00 1024 30.24 853 25.19 -0.8 30.6 77 -4.3 24.2
03:05 1023 30.21 853 25.19 -1 30.2 77 -4.5 23.9
03:10 1023 30.21 853 25.19 -0.8 30.6 76 -4.6 23.7
03:15 1023 30.21 853 25.19 -0.2 31.6 75 -4.2 24.5
03:20 1023 30.21 853 25.19 0.1 32.2 73 -4.2 24.4
03:25 1023 30.21 853 25.19 0.3 32.6 73 -4 24.7
03:30 1023 30.21 853 25.19 0.3 32.6 72 -4.1 24.6
03:35 1023 30.21 853 25.19 0.1 32.2 74 -4.1 24.6
03:40 1023 30.21 853 25.19 -0.1 31.8 74 -4.1 24.6
03:45 1023 30.21 852 25.16 -0.3 31.4 75 -4.2 24.4
03:50 1023 30.21 852 25.16 -0.4 31.2 75 -4.3 24.3
03:55 1023 30.21 852 25.16 -0.3 31.4 74 -4.3 24.2
04:00 1023 30.21 852 25.16 0.3 32.5 71 -4.3 24.2
04:05 1023 30.21 852 25.16 0.5 32.8 73 -3.9 25
04:10 1023 30.21 852 25.16 0.2 32.4 73 -4.1 24.5
04:15 1023 30.21 852 25.16 0.2 32.3 73 -4.1 24.6
04:20 1023 30.21 852 25.16 0.1 32.1 74 -4.1 24.6
04:25 1023 30.21 852 25.16 0 32.1 73 -4.3 24.3
04:30 1023 30.21 852 25.16 0.2 32.3 73 -4.1 24.6
04:35 1023 30.21 852 25.16 0.1 32.3 73 -4.1 24.7
04:40 1023 30.21 852 25.16 -0.1 31.9 75 -4.1 24.7
04:45 1023 30.21 852 25.16 -0.3 31.5 75 -4.2 24.5
04:50 1023 30.21 852 25.16 -0.6 31 76 -4.3 24.3
04:55 1023 30.21 852 25.16 -0.9 30.5 77 -4.3 24.2
05:00 1023 30.21 852 25.16 -1 30.2 78 -4.4 24
05:05 1023 30.21 852 25.16 -1 30.1 77 -4.5 23.9
05:10 1023 30.21 852 25.16 -1 30.2 77 -4.5 24
05:15 1023 30.21 852 25.16 -1.1 30.1 77 -4.5 23.9
05:20 1023 30.21 852 25.16 -0.9 30.4 77 -4.4 24.1
05:25 1023 30.21 852 25.16 -1 30.1 77 -4.5 23.9
05:30 1023 30.21 852 25.16 -1.2 29.8 78 -4.5 23.9
05:35 1023 30.21 852 25.16 -1.3 29.7 79 -4.4 24.1
05:40 1023 30.21 852 25.16 -0.9 30.4 77 -4.4 24.1
05:45 1023 30.21 852 25.16 -0.5 31 77 -4.1 24.7
05:50 1023 30.21 852 25.16 -0.4 31.2 77 -4 24.7
05:55 1023 30.21 852 25.16 -0.7 30.8 78 -4 24.7
06:00 1023 30.21 852 25.16 -0.5 31 77 -4.2 24.5
06:05 1023 30.21 852 25.16 0.2 32.3 73 -4.1 24.6
06:10 1023 30.21 852 25.16 0.2 32.4 74 -3.9 25
06:15 1023 30.21 852 25.16 0.1 32.2 73 -4.1 24.6
06:20 1023 30.21 852 25.16 -0.4 31.2 78 -3.9 25
06:25 1023 30.21 852 25.16 -1 30.3 78 -4.4 24.1
06:30 1023 30.21 852 25.16 -1.2 29.9 78 -4.6 23.8
06:35 1023 30.21 852 25.16 -1 30.2 78 -4.4 24
06:40 1023 30.21 852 25.16 -0.8 30.5 76 -4.6 23.7
06:45 1023 30.21 852 25.16 -0.7 30.8 76 -4.4 24
06:50 1023 30.21 852 25.16 -0.8 30.6 76 -4.5 23.9
06:55 1023 30.21 852 25.16 -0.7 30.7 76 -4.4 24
07:00 1023 30.21 852 25.16 -0.8 30.5 77 -4.3 24.2
07:05 1023 30.21 852 25.16 -1 30.2 78 -4.3 24.3
07:10 1023 30.21 852 25.16 -0.8 30.6 77 -4.4 24.1
07:15 1023 30.21 852 25.16 -0.4 31.3 75 -4.4 24.2
07:20 1023 30.21 852 25.16 -0.3 31.5 74 -4.3 24.3
07:25 1023 30.21 852 25.16 -0.5 31.2 75 -4.3 24.2
07:30 1023 30.21 852 25.16 -0.6 30.9 75 -4.6 23.8
07:35 1023 30.21 852 25.16 -0.3 31.5 74 -4.5 24
07:40 1023 30.21 852 25.16 -0 32 72 -4.4 24
07:45 1023 30.21 852 25.16 0.1 32.2 72 -4.3 24.2
07:50 1023 30.21 852 25.16 -0 31.9 72 -4.5 24
07:55 1023 30.21 852 25.16 -0.1 31.9 73 -4.4 24.2
08:00 1023 30.21 852 25.16 -0 32 72 -4.4 24
08:05 1023 30.21 852 25.16 0.2 32.4 71 -4.4 24
08:10 1023 30.21 852 25.16 0.7 33.3 69 -4.3 24.2
08:15 1023 30.21 852 25.16 1.6 34.9 65 -4.2 24.4
08:20 1023 30.21 852 25.16 1.9 35.4 64 -4.2 24.4
08:25 1023 30.21 852 25.16 2.4 36.3 62 -4.2 24.5
08:30 1023 30.21 852 25.16 2.4 36.4 62 -4 24.8
08:35 1023 30.21 852 25.16 2.5 36.5 62 -4.1 24.7
08:40 1023 30.21 852 25.16 2.8 37 61 -3.9 24.9
08:45 1023 30.21 852 25.16 2.5 36.6 61 -4.3 24.2
08:50 1023 30.21 852 25.16 3.2 37.7 59 -4.1 24.7
08:55 1023 30.21 852 25.16 3 37.5 61 -3.7 25.4
09:00 1023 30.21 852 25.16 3 37.4 61 -3.8 25.1
09:05 1023 30.21 852 25.16 3.1 37.6 60 -4 24.9
09:10 1023 30.21 852 25.16 3.6 38.4 58 -3.9 24.9
09:15 1023 30.21 852 25.16 4 39.3 57 -3.7 25.3
09:20 1023 30.21 852 25.16 4.4 39.8 58 -3.2 26.3
09:25 1023 30.21 852 25.16 4.4 39.9 56 -3.5 25.7
09:30 1023 30.21 852 25.16 4.9 40.9 57 -2.9 26.8
09:35 1023 30.21 852 25.16 5.3 41.5 54 -3.2 26.2
09:40 1023 30.21 852 25.16 5.6 42.1 52 -3.4 25.9
09:45 1023 30.21 852 25.16 6.1 42.9 51 -3.2 26.2
09:50 1023 30.21 852 25.16 6.5 43.6 51 -2.9 26.8
09:55 1023 30.21 852 25.16 6.3 43.4 50 -3.3 26.1
10:00 1023 30.21 852 25.16 6.2 43.2 53 -2.6 27.2
10:05 1023 30.21 852 25.16 5.9 42.6 53 -2.9 26.7
10:10 1023 30.21 852 25.16 6.4 43.4 50 -3.3 26.1
10:15 1023 30.21 852 25.16 6.2 43.1 50 -3.4 25.9
10:20 1023 30.21 852 25.16 6.4 43.5 50 -3.4 25.9
10:25 1023 30.21 852 25.16 6.3 43.3 50 -3.3 26.1
10:30 1023 30.21 852 25.16 6.3 43.4 51 -3.1 26.5
10:35 1023 30.21 852 25.16 6.7 44.1 49 -3.2 26.3
10:40 1023 30.21 852 25.16 7.1 44.7 47 -3.4 25.9
10:45 1023 30.21 852 25.16 7.1 44.7 50 -2.7 27.1
10:50 1023 30.21 852 25.16 7.2 44.9 50 -2.6 27.3
10:55 1023 30.21 852 25.16 7.9 46.1 48 -2.4 27.7
11:00 1023 30.21 852 25.16 8.4 47.1 46 -2.4 27.7
11:05 1023 30.21 852 25.16 9.7 49.5 43 -2.3 27.8
11:10 1023 30.21 852 25.16 9.5 49.2 44 -1.9 28.5
11:15 1023 30.21 852 25.16 8.8 47.8 46 -2.1 28.2
11:20 1023 30.21 852 25.16 8.4 47.1 47 -2.2 28
11:25 1022 30.18 852 25.16 8.6 47.5 45 -2.6 27.2
11:30 1022 30.18 852 25.16 8.6 47.4 47 -2.2 28.1
11:35 1022 30.18 851 25.13 8.2 46.7 47 -2.4 27.7
11:40 1022 30.18 851 25.13 8.4 47.1 47 -2.3 27.9
11:45 1022 30.18 851 25.13 8.3 47 47 -2.2 28.1
11:50 1022 30.18 851 25.13 8.3 46.9 48 -1.9 28.5
11:55 1022 30.18 851 25.13 9.2 48.5 44 -2.3 27.8
12:00 1022 30.18 851 25.13 9.8 49.6 45 -1.7 28.9
12:05 1022 30.18 851 25.13 10.4 50.8 41 -2.2 28.1
12:10 1022 30.18 851 25.13 10.5 50.9 41 -2.3 27.9
12:15 1022 30.18 851 25.13 10.7 51.2 41 -2 28.5
12:20 1022 30.18 851 25.13 10.5 50.8 41 -2 28.4
12:25 1022 30.18 851 25.13 11 51.8 39 -2.3 27.9
12:30 1022 30.18 851 25.13 12.1 53.8 37 -2.3 27.9
12:35 1022 30.18 851 25.13 12 53.6 39 -1.5 29.2
12:40 1022 30.18 851 25.13 12 53.5 38 -1.9 28.6
12:45 1022 30.18 851 25.13 12.3 54.2 38 -1.5 29.3
12:50 1022 30.18 851 25.13 12.1 53.8 37 -2 28.4
12:55 1021 30.15 851 25.13 11.8 53.2 40 -1.5 29.4
13:00 1021 30.15 851 25.13 11.8 53.2 37 -2.4 27.8
13:05 1021 30.15 851 25.13 12.4 54.3 37 -2 28.4
13:10 1021 30.15 850 25.1 12.4 54.3 36 -2.2 28
13:15 1021 30.15 850 25.1 12.8 55 35 -2.4 27.7
13:20 1021 30.15 850 25.1 12 53.7 36 -2.6 27.2
13:25 1021 30.15 850 25.1 11.9 53.5 36 -2.6 27.4
13:30 1021 30.15 850 25.1 12 53.6 37 -2.2 28.1
13:35 1021 30.15 850 25.1 12 53.7 36 -2.4 27.7
13:40 1021 30.15 850 25.1 11.9 53.4 35 -2.9 26.7
13:45 1021 30.15 850 25.1 11.7 53.1 35 -3.1 26.4
13:50 1021 30.15 850 25.1 12.2 54 34 -3.2 26.2
13:55 1021 30.15 850 25.1 12.7 54.9 32 -3.5 25.8
14:00 1021 30.15 850 25.1 13.8 56.8 31 -3 26.6
14:05 1021 30.15 850 25.1 14 57.2 32 -2.4 27.6
14:10 1021 30.15 850 25.1 13.6 56.5 32 -2.9 26.8
14:15 1021 30.15 850 25.1 13.8 56.8 30 -3.5 25.7
14:20 1020 30.12 850 25.1 13.7 56.6 32 -2.5 27.5
14:25 1020 30.12 850 25.1 13.3 55.9 32 -2.9 26.8
14:30 1020 30.12 850 25.1 13.3 55.9 32 -2.9 26.9
14:35 1020 30.12 850 25.1 12.9 55.2 34 -2.7 27.2
14:40 1020 30.12 850 25.1 12.7 54.8 34 -2.9 26.8
14:45 1020 30.12 849 25.07 12.9 55.2 34 -2.7 27.2
14:50 1020 30.12 849 25.07 12.5 54.5 34 -2.7 27.1
14:55 1020 30.12 849 25.07 12.5 54.6 33 -3.1 26.4
15:00 1020 30.12 849 25.07 12.4 54.4 34 -3.1 26.5
15:05 1020 30.12 849 25.07 12.6 54.6 33 -3.1 26.3
15:10 1020 30.12 849 25.07 12.5 54.6 33 -3.2 26.2
15:15 1020 30.12 849 25.07 12.6 54.7 34 -2.9 26.7
15:20 1020 30.12 849 25.07 12.4 54.4 34 -2.9 26.8
15:25 1020 30.12 849 25.07 12.6 54.7 33 -3.3 26.1
15:30 1020 30.12 849 25.07 12.6 54.6 34 -3 26.6
15:35 1020 30.12 849 25.07 12.6 54.6 34 -2.7 27.2
15:40 1020 30.12 849 25.07 12.7 54.8 34 -2.8 27
15:45 1020 30.12 849 25.07 12.7 54.9 35 -2.1 28.2
15:50 1020 30.12 849 25.07 12.6 54.7 38 -1.4 29.6
15:55 1020 30.12 849 25.07 12.3 54.2 40 -1 30.2
16:00 1020 30.12 850 25.1 12.5 54.4 40 -0.8 30.6
16:05 1020 30.12 850 25.1 12.6 54.6 41 -0.4 31.3
16:10 1020 30.12 850 25.1 12.5 54.4 42 -0.1 31.8
16:15 1020 30.12 850 25.1 12.3 54.1 43 0.1 32.1
16:20 1020 30.12 850 25.1 12.1 53.8 44 0.3 32.5
16:25 1020 30.12 850 25.1 11.8 53.2 46 0.5 32.8
16:30 1020 30.12 850 25.1 11.5 52.6 47 0.6 33.1
16:35 1020 30.12 850 25.1 11.2 52.2 48 0.6 33.2
16:40 1020 30.12 850 25.1 11.4 52.4 47 0.6 33.2
16:45 1021 30.15 850 25.1 11.1 52 50 1.1 34
16:50 1021 30.15 850 25.1 10.6 51 51 1 33.8
16:55 1021 30.15 850 25.1 10.5 50.9 51 0.9 33.5
17:00 1021 30.15 850 25.1 10.6 51 51 0.9 33.6
17:05 1021 30.15 850 25.1 10.6 51 52 1.1 33.9
17:10 1021 30.15 850 25.1 10.5 50.8 52 1.1 33.9
17:15 1020 30.12 850 25.1 10.3 50.5 53 1.1 34
17:20 1020 30.12 850 25.1 9.9 49.9 53 1 33.7
17:25 1021 30.15 850 25.1 10 50 53 0.8 33.4
17:30 1021 30.15 850 25.1 10 50.1 54 1.1 34
17:35 1021 30.15 850 25.1 9.8 49.7 55 1.1 34
17:40 1021 30.15 850 25.1 9.7 49.5 54 0.9 33.5
17:45 1021 30.15 850 25.1 9.5 49 50 -0.4 31.4
17:50 1021 30.15 850 25.1 9.5 49.2 47 -1.3 29.7
17:55 1021 30.15 850 25.1 9.5 49 50 -0.5 31.1
18:00 1021 30.15 850 25.1 9.1 48.5 52 -0.1 31.8
18:05 1021 30.15 850 25.1 9 48.3 53 0.1 32.1
18:10 1020 30.12 850 25.1 8.7 47.7 52 -0.5 31.1
18:15 1021 30.15 850 25.1 8.4 47.1 50 -1.3 29.7
18:20 1021 30.15 850 25.1 8.4 47.1 52 -0.7 30.7
18:25 1021 30.15 850 25.1 8.2 46.8 53 -0.7 30.7
18:30 1020 30.12 850 25.1 8.1 46.6 55 -0.3 31.5
18:35 1021 30.15 850 25.1 8.2 46.7 57 0.1 32.2
18:40 1020 30.12 850 25.1 8 46.4 58 0.2 32.3
18:45 1020 30.12 850 25.1 8.1 46.5 59 0.5 32.8
18:50 1020 30.12 850 25.1 8 46.3 56 -0.3 31.5
18:55 1020 30.12 850 25.1 7.9 46.2 55 -0.6 31
19:00 1020 30.12 850 25.1 8.1 46.7 57 0.2 32.3
19:05 1020 30.12 850 25.1 8 46.5 58 0.2 32.4
19:10 1020 30.12 850 25.1 7.8 46.1 59 0.4 32.7
19:15 1020 30.12 850 25.1 7.6 45.8 58 -0.1 31.9
19:20 1021 30.15 850 25.1 7.5 45.4 59 -0 32
19:25 1021 30.15 850 25.1 7.3 45.1 57 -0.6 30.9
19:30 1021 30.15 850 25.1 7.4 45.2 55 -1.2 29.9
19:35 1021 30.15 850 25.1 7.5 45.5 52 -1.8 28.8
19:40 1021 30.15 850 25.1 7.5 45.6 49 -2.5 27.5
19:45 1021 30.15 850 25.1 7.3 45.2 52 -1.9 28.5
19:50 1021 30.15 850 25.1 6.7 44 54 -2 28.3
19:55 1020 30.12 850 25.1 5.7 42.2 57 -2.2 28.1
20:00 1020 30.12 850 25.1 5 41.1 55 -3.2 26.3
20:05 1020 30.12 850 25.1 5.1 41.1 54 -3.4 25.9
20:10 1020 30.12 849 25.07 5.4 41.7 51 -3.9 25
20:15 1020 30.12 849 25.07 5.7 42.3 52 -3.5 25.8
20:20 1020 30.12 849 25.07 6 42.7 50 -3.8 25.2
20:25 1020 30.12 849 25.07 6.2 43.1 46 -4.5 24
20:30 1020 30.12 849 25.07 6.4 43.5 46 -4.4 24.2
20:35 1020 30.12 849 25.07 6.4 43.6 46 -4.5 23.9
20:40 1020 30.12 849 25.07 6.2 43.2 48 -4 24.8
20:45 1020 30.12 849 25.07 5.7 42.2 50 -3.9 24.9
20:50 1020 30.12 849 25.07 5.3 41.6 50 -4.3 24.2
20:55 1020 30.12 849 25.07 5.6 42 50 -4.1 24.6
21:00 1020 30.12 849 25.07 6.3 43.3 44 -5 23
21:05 1020 30.12 849 25.07 7.3 45.1 44 -4.2 24.5
21:10 1020 30.12 849 25.07 7.5 45.6 43 -4.3 24.2
21:15 1020 30.12 849 25.07 8 46.3 42 -4.2 24.4
21:20 1020 30.12 849 25.07 8 46.4 44 -3.6 25.6
21:25 1020 30.12 849 25.07 7.4 45.4 45 -3.6 25.5
21:30 1020 30.12 850 25.1 7 44.5 46 -3.8 25.2
21:35 1020 30.12 849 25.07 6.9 44.4 46 -4 24.8
21:40 1020 30.12 849 25.07 6.8 44.2 45 -4.2 24.4
21:45 1020 30.12 849 25.07 7.2 44.9 44 -4.4 24.1
21:50 1020 30.12 849 25.07 7.8 46 41 -4.8 23.4
21:55 1020 30.12 849 25.07 8.4 47 40 -4.5 23.9
22:00 1020 30.12 849 25.07 8.3 46.9 39 -4.8 23.4
22:05 1020 30.12 849 25.07 8.4 47.1 37 -5.3 22.4
22:10 1020 30.12 849 25.07 8.2 46.7 43 -3.7 25.3
22:15 1020 30.12 849 25.07 6.9 44.5 45 -4.3 24.3
22:20 1020 30.12 849 25.07 6.3 43.3 48 -3.9 25.1
22:25 1020 30.12 849 25.07 5.7 42.3 48 -4.5 23.8
22:30 1020 30.12 849 25.07 6 42.9 44 -5.4 22.3
22:35 1020 30.12 849 25.07 6.7 44.1 42 -5.4 22.3
22:40 1020 30.12 849 25.07 7.4 45.3 38 -5.9 21.4
22:45 1020 30.12 849 25.07 8.1 46.6 36 -6.1 21
22:50 1020 30.12 849 25.07 8.6 47.5 34 -6.3 20.6
22:55 1020 30.12 849 25.07 8.9 48.1 33 -6.4 20.5
23:00 1020 30.12 849 25.07 9.3 48.7 31 -6.8 19.7
23:05 1020 30.12 849 25.07 9.9 49.9 30 -6.8 19.7
23:10 1020 30.12 849 25.07 10.3 50.5 30 -6.6 20.2
23:15 1020 30.12 849 25.07 10.2 50.3 31 -6.4 20.5
23:20 1020 30.12 849 25.07 10 49.9 30 -6.6 20
23:25 1020 30.12 849 25.07 10 50.1 30 -6.6 20.2
23:30 1020 30.12 849 25.07 10.2 50.3 30 -6.6 20
23:35 1020 30.12 849 25.07 10.1 50.1 30 -6.7 19.9
23:40 1020 30.12 849 25.07 10.1 50.2 29 -6.9 19.5
23:45 1020 30.12 849 25.07 10.3 50.5 29 -6.9 19.6
23:50 1020 30.12 849 25.07 10.4 50.7 29 -6.7 19.9
23:55 1020 30.12 849 25.07 10.6 51 28 -7.3 18.8
24:00 1020 30.12 849 25.07 11 51.7 27 -7.3 18.9